createdAt,value
2023-04-18T00:01:44.844Z,102980.44
2023-04-18T00:03:50.145Z,102976.13
2023-04-18T00:05:55.402Z,102977.84
2023-04-18T00:08:00.892Z,102980.50
2023-04-18T00:10:06.634Z,102979.66
2023-04-18T00:12:11.749Z,102978.75
2023-04-18T00:14:16.863Z,102984.88
2023-04-18T00:16:27.411Z,102978.75
2023-04-18T00:18:32.371Z,102984.88
2023-04-18T00:20:39.174Z,102986.59
2023-04-18T00:22:46.809Z,102977.91
2023-04-18T00:24:55.058Z,102973.56
2023-04-18T00:27:00.141Z,102975.34
2023-04-18T00:29:08.750Z,102976.28
2023-04-18T00:31:23.561Z,102970.13
2023-04-18T00:33:31.434Z,102977.19
2023-04-18T00:35:38.588Z,102975.44
2023-04-18T00:37:43.472Z,102975.44
2023-04-18T00:39:49.089Z,102968.47
2023-04-18T00:41:56.117Z,102971.94
2023-04-18T00:44:02.678Z,102965.81
2023-04-18T00:46:08.025Z,102969.28
2023-04-18T00:48:14.093Z,102968.31
2023-04-18T00:50:23.913Z,102967.53
2023-04-18T00:52:36.597Z,102964.84
2023-04-18T00:54:42.994Z,102964.84
2023-04-18T00:56:50.506Z,102965.75
2023-04-18T00:58:57.468Z,102957.03
2023-04-18T01:01:04.252Z,102961.41
2023-04-18T01:03:11.019Z,102960.47
2023-04-18T01:05:16.609Z,102964.00
2023-04-18T01:07:26.762Z,102964.84
2023-04-18T01:09:37.801Z,102961.34
2023-04-18T01:11:55.097Z,102965.75
2023-04-18T01:14:14.889Z,102962.28
2023-04-18T01:16:23.094Z,102963.16
2023-04-18T01:18:34.384Z,102960.59
2023-04-18T01:20:42.859Z,102958.84
2023-04-18T01:22:52.891Z,102957.09
2023-04-18T01:25:02.164Z,102959.69
2023-04-18T01:27:09.025Z,102949.19
2023-04-18T01:29:16.196Z,102956.19
2023-04-18T01:31:26.929Z,102953.56
2023-04-18T01:33:32.110Z,102953.50
2023-04-18T01:35:39.663Z,102950.91
2023-04-18T01:37:44.624Z,102950.88
2023-04-18T01:39:50.744Z,102951.69
2023-04-18T01:41:58.258Z,102953.47
2023-04-18T01:44:04.453Z,102953.47
2023-04-18T01:46:09.471Z,102948.25
2023-04-18T01:48:14.706Z,102943.84
2023-04-18T01:50:20.241Z,102944.72
2023-04-18T01:52:28.434Z,102946.47
2023-04-18T01:54:34.176Z,102939.41
2023-04-18T01:56:39.241Z,102946.41
2023-04-18T01:58:47.049Z,102951.56
2023-04-18T02:00:55.032Z,102946.31
2023-04-18T02:03:02.517Z,102942.78
2023-04-18T02:05:09.709Z,102945.34
2023-04-18T02:07:15.051Z,102939.25
2023-04-18T02:09:19.980Z,102941.81
2023-04-18T02:11:28.008Z,102939.19
2023-04-18T02:13:33.151Z,102949.63
2023-04-18T02:15:44.139Z,102949.53
2023-04-18T02:17:49.450Z,102943.41
2023-04-18T02:19:54.501Z,102937.28
2023-04-18T02:21:59.641Z,102944.16
2023-04-18T02:24:05.630Z,102938.97
2023-04-18T02:26:10.674Z,102938.88
2023-04-18T02:28:15.611Z,102935.41
2023-04-18T02:30:20.762Z,102928.38
2023-04-18T02:32:30.460Z,102932.75
2023-04-18T02:34:35.759Z,102926.59
2023-04-18T02:36:41.889Z,102930.03
2023-04-18T02:38:50.421Z,102923.03
2023-04-18T02:40:56.338Z,102930.00
2023-04-18T02:43:02.419Z,102926.50
2023-04-18T02:45:10.211Z,102923.84
2023-04-18T02:47:15.533Z,102936.78
2023-04-18T02:49:25.184Z,102932.47
2023-04-18T02:51:30.326Z,102934.16
2023-04-18T02:53:36.674Z,102934.03
2023-04-18T02:55:42.044Z,102929.72
2023-04-18T02:57:49.623Z,102935.78
2023-04-18T02:59:54.780Z,102934.78
2023-04-18T03:01:59.864Z,102935.66
2023-04-18T03:04:06.430Z,102933.00
2023-04-18T03:06:19.052Z,102934.72
2023-04-18T03:08:24.492Z,102932.16
2023-04-18T03:10:29.504Z,102936.38
2023-04-18T03:12:34.871Z,102932.84
2023-04-18T03:14:39.991Z,102938.97
2023-04-18T03:16:45.338Z,102938.88
2023-04-18T03:18:50.418Z,102936.34
2023-04-18T03:20:55.453Z,102936.34
2023-04-18T03:23:03.039Z,102945.75
2023-04-18T03:25:10.688Z,102937.97
2023-04-18T03:27:19.205Z,102937.03
2023-04-18T03:29:26.917Z,102942.28
2023-04-18T03:31:34.579Z,102943.19
2023-04-18T03:33:39.715Z,102948.38
2023-04-18T03:35:44.854Z,102949.22
2023-04-18T03:37:50.068Z,102949.16
2023-04-18T03:39:57.961Z,102952.59
2023-04-18T03:42:03.197Z,102952.63
2023-04-18T03:44:09.588Z,102949.16
2023-04-18T03:46:14.599Z,102949.19
2023-04-18T03:48:19.924Z,102945.75
2023-04-18T03:50:25.937Z,102937.97
2023-04-18T03:52:31.223Z,102945.84
2023-04-18T03:54:36.825Z,102945.91
2023-04-18T03:56:44.814Z,102939.91
2023-04-18T03:58:50.043Z,102942.53
2023-04-18T04:00:55.479Z,102945.97
2023-04-18T04:03:00.869Z,102947.75
2023-04-18T04:05:06.276Z,102948.59
2023-04-18T04:07:12.335Z,102948.63
2023-04-18T04:09:20.291Z,102953.00
2023-04-18T04:11:26.308Z,102952.13
2023-04-18T04:13:35.164Z,102955.63
2023-04-18T04:15:41.308Z,102953.09
2023-04-18T04:17:46.330Z,102953.06
2023-04-18T04:19:53.436Z,102947.88
2023-04-18T04:21:58.510Z,102949.69
2023-04-18T04:24:04.305Z,102952.28
2023-04-18T04:26:09.983Z,102951.34
2023-04-18T04:28:15.089Z,102951.34
2023-04-18T04:30:28.933Z,102953.13
2023-04-18T04:32:35.091Z,102957.44
2023-04-18T04:34:41.683Z,102951.34
2023-04-18T04:36:49.454Z,102951.34
2023-04-18T04:38:54.490Z,102953.09
2023-04-18T04:41:03.109Z,102950.47
2023-04-18T04:43:12.964Z,102947.78
2023-04-18T04:45:23.579Z,102960.84
2023-04-18T04:47:31.710Z,102952.22
2023-04-18T04:49:36.800Z,102958.22
2023-04-18T04:51:41.996Z,102964.34
2023-04-18T04:53:48.504Z,102957.34
2023-04-18T04:55:54.187Z,102951.31
2023-04-18T04:57:59.251Z,102958.25
2023-04-18T05:00:06.402Z,102962.56
2023-04-18T05:02:14.277Z,102958.19
2023-04-18T05:04:21.529Z,102970.31
2023-04-18T05:06:27.863Z,102964.28
2023-04-18T05:08:32.833Z,102966.03
2023-04-18T05:10:41.753Z,102969.50
2023-04-18T05:12:46.780Z,102970.31
2023-04-18T05:14:52.917Z,102963.44
2023-04-18T05:16:58.945Z,102975.63
2023-04-18T05:19:06.562Z,102973.00
2023-04-18T05:21:11.457Z,102971.34
2023-04-18T05:23:16.487Z,102972.28
2023-04-18T05:25:24.720Z,102970.53
2023-04-18T05:27:30.548Z,102978.38
2023-04-18T05:29:36.108Z,102982.78
2023-04-18T05:31:44.307Z,102978.41
2023-04-18T05:33:49.410Z,102979.34
2023-04-18T05:35:57.434Z,102980.28
2023-04-18T05:38:02.806Z,102983.75
2023-04-18T05:40:10.672Z,102980.25
2023-04-18T05:42:15.913Z,102984.63
2023-04-18T05:44:24.770Z,102983.00
2023-04-18T05:46:30.009Z,102973.47
2023-04-18T05:48:39.417Z,102980.44
2023-04-18T05:50:44.654Z,102984.84
2023-04-18T05:52:52.840Z,102989.22
2023-04-18T05:54:57.969Z,102989.22
2023-04-18T05:57:04.789Z,102992.75
2023-04-18T05:59:10.200Z,102989.22
2023-04-18T06:01:16.576Z,102993.69
2023-04-18T06:03:24.039Z,102994.59
2023-04-18T06:05:29.710Z,103005.09
2023-04-18T06:07:36.082Z,102995.59
2023-04-18T06:09:44.126Z,102997.34
2023-04-18T06:11:49.887Z,102992.16
2023-04-18T06:13:56.337Z,103000.06
2023-04-18T06:16:01.674Z,103002.69
2023-04-18T06:18:07.120Z,102995.69
2023-04-18T06:20:13.301Z,102994.88
2023-04-18T06:22:19.795Z,102999.28
2023-04-18T06:24:24.862Z,103001.88
2023-04-18T06:26:33.373Z,103011.47
2023-04-18T06:28:39.177Z,103009.75
2023-04-18T06:30:44.475Z,103002.81
2023-04-18T06:32:49.735Z,102996.75
2023-04-18T06:34:54.906Z,103010.66
2023-04-18T06:36:59.923Z,103009.84
2023-04-18T06:39:06.546Z,103003.78
2023-04-18T06:41:11.648Z,103006.28
2023-04-18T06:43:19.682Z,103004.50
2023-04-18T06:45:24.877Z,103011.59
2023-04-18T06:47:30.047Z,103012.47
2023-04-18T06:49:36.630Z,103010.81
2023-04-18T06:51:41.914Z,103014.34
2023-04-18T06:53:50.612Z,103005.72
2023-04-18T06:55:55.946Z,102999.63
2023-04-18T06:58:01.100Z,103003.19
2023-04-18T07:00:10.636Z,103009.34
2023-04-18T07:02:15.791Z,103005.00
2023-04-18T07:04:21.072Z,103009.47
2023-04-18T07:06:26.476Z,103009.53
2023-04-18T07:08:31.535Z,103006.09
2023-04-18T07:10:36.642Z,103003.59
2023-04-18T07:12:41.658Z,103000.13
2023-04-18T07:14:49.276Z,103007.06
2023-04-18T07:16:57.950Z,103006.19
2023-04-18T07:19:04.584Z,103005.38
2023-04-18T07:21:10.182Z,103001.03
2023-04-18T07:23:15.340Z,103010.72
2023-04-18T07:25:20.581Z,103015.06
2023-04-18T07:27:26.260Z,103014.28
2023-04-18T07:29:31.614Z,103012.47
2023-04-18T07:31:38.606Z,103022.00
2023-04-18T07:33:46.477Z,103010.72
2023-04-18T07:35:54.906Z,103015.09
2023-04-18T07:38:00.292Z,103009.00
2023-04-18T07:40:06.142Z,103014.19
2023-04-18T07:42:11.619Z,103022.19
2023-04-18T07:44:16.986Z,103015.22
2023-04-18T07:46:24.930Z,103018.78
2023-04-18T07:48:30.163Z,103006.66
2023-04-18T07:50:39.380Z,103016.22
2023-04-18T07:52:50.754Z,103003.19
2023-04-18T07:54:56.114Z,103000.63
2023-04-18T07:57:02.481Z,103011.97
2023-04-18T07:59:07.658Z,103002.34
2023-04-18T08:01:15.912Z,103004.13
2023-04-18T08:03:22.811Z,103009.38
2023-04-18T08:05:28.188Z,103011.16
2023-04-18T08:07:36.628Z,103012.06
2023-04-18T08:09:42.200Z,103011.16
2023-04-18T08:11:47.463Z,103012.00
2023-04-18T08:13:53.090Z,103010.25
2023-04-18T08:16:00.155Z,103013.75
2023-04-18T08:18:06.352Z,103011.09
2023-04-18T08:20:13.330Z,103006.75
2023-04-18T08:22:19.654Z,103005.03
2023-04-18T08:24:27.775Z,103005.88
2023-04-18T08:26:32.984Z,103006.84
2023-04-18T08:28:46.605Z,103011.22
2023-04-18T08:31:00.814Z,103005.13
2023-04-18T08:33:06.443Z,103011.19
2023-04-18T08:35:12.247Z,103008.59
2023-04-18T08:37:18.048Z,103014.72
2023-04-18T08:39:24.874Z,103011.25
2023-04-18T08:41:40.202Z,103005.22
2023-04-18T08:43:45.305Z,103007.81
2023-04-18T08:45:50.508Z,103010.47
2023-04-18T08:47:56.247Z,103009.59
2023-04-18T08:50:01.568Z,103005.19
2023-04-18T08:52:12.803Z,103016.56
2023-04-18T08:54:22.696Z,103007.84
2023-04-18T08:56:27.752Z,103013.09
2023-04-18T08:58:38.379Z,102999.06
2023-04-18T09:00:46.421Z,103000.78
2023-04-18T09:02:57.251Z,103005.19
2023-04-18T09:05:02.986Z,102996.44
2023-04-18T09:07:10.270Z,102992.06
2023-04-18T09:09:16.908Z,102991.16
2023-04-18T09:11:29.559Z,102994.63
2023-04-18T09:13:48.037Z,102996.34
2023-04-18T09:15:59.483Z,102994.59
2023-04-18T09:18:06.121Z,102991.97
2023-04-18T09:20:13.105Z,102999.84
2023-04-18T09:22:19.608Z,103000.75
2023-04-18T09:24:27.474Z,102996.38
2023-04-18T09:26:37.303Z,103003.31
2023-04-18T09:28:45.424Z,103003.31
2023-04-18T09:30:51.735Z,102998.84
2023-04-18T09:33:01.794Z,103001.53
2023-04-18T09:35:09.827Z,102998.03
2023-04-18T09:37:15.949Z,102989.22
2023-04-18T09:39:30.279Z,102993.63
2023-04-18T09:41:35.943Z,102984.56
2023-04-18T09:43:41.277Z,102993.22
2023-04-18T09:45:50.583Z,102980.97
2023-04-18T09:47:56.510Z,102978.94
2023-04-18T09:50:01.714Z,102988.00
2023-04-18T09:52:11.202Z,102979.22
2023-04-18T09:54:21.558Z,102971.19
2023-04-18T09:56:28.870Z,102980.94
2023-04-18T09:58:36.836Z,102989.56
2023-04-18T10:00:45.013Z,102983.53
2023-04-18T10:02:59.637Z,102982.78
2023-04-18T10:05:08.481Z,102983.72
2023-04-18T10:07:14.563Z,102981.06
2023-04-18T10:09:20.154Z,102976.56
2023-04-18T10:11:26.457Z,102975.66
2023-04-18T10:13:32.657Z,102958.94
2023-04-18T10:15:38.903Z,102966.88
2023-04-18T10:18:02.869Z,102969.56
2023-04-18T10:20:20.693Z,102968.69
2023-04-18T10:22:31.063Z,102966.88
2023-04-18T10:24:53.802Z,102971.22
2023-04-18T10:26:59.450Z,102953.47
2023-04-18T10:29:04.961Z,102961.84
2023-04-18T10:31:10.274Z,102951.19
2023-04-18T10:33:31.992Z,102960.38
2023-04-18T10:35:58.828Z,102954.34
2023-04-18T10:38:05.990Z,102954.66
2023-04-18T10:40:12.773Z,102950.19
2023-04-18T10:42:20.238Z,102939.84
2023-04-18T10:44:27.259Z,102954.25
2023-04-18T10:46:33.026Z,102943.84
2023-04-18T10:48:40.533Z,102949.84
2023-04-18T10:51:15.350Z,102958.56
2023-04-18T10:53:23.481Z,102945.41
2023-04-18T10:55:31.839Z,102941.88
2023-04-18T10:58:28.375Z,102941.06
2023-04-18T11:00:40.962Z,102948.50
2023-04-18T11:03:08.226Z,102946.06
2023-04-18T11:05:37.756Z,102941.72
2023-04-18T11:07:54.477Z,102932.25
2023-04-18T11:10:26.560Z,102933.16
2023-04-18T11:13:29.193Z,102924.50
2023-04-18T11:15:43.976Z,102939.69
2023-04-18T11:18:05.183Z,102938.09
2023-04-18T11:20:23.476Z,102930.06
2023-04-18T11:22:44.953Z,102931.00
2023-04-18T11:25:02.210Z,102946.78
2023-04-18T11:27:16.514Z,102942.31
2023-04-18T11:30:19.694Z,102929.94
2023-04-18T11:32:36.858Z,102936.72
2023-04-18T11:35:13.159Z,102936.94
2023-04-18T11:37:35.280Z,102932.59
2023-04-18T11:40:04.514Z,102941.41
2023-04-18T11:42:16.200Z,102943.34
2023-04-18T11:44:57.344Z,102936.19
2023-04-18T11:49:49.234Z,102937.25
2023-04-18T11:52:26.821Z,102937.47
2023-04-18T11:55:30.259Z,102936.41
2023-04-18T11:57:46.126Z,102943.56
2023-04-18T12:00:13.587Z,102932.91
2023-04-18T12:02:35.033Z,102929.19
2023-04-18T12:05:20.599Z,102938.91
2023-04-18T12:07:52.359Z,102919.53
2023-04-18T12:10:04.438Z,102936.94
2023-04-18T12:12:10.461Z,102934.94
2023-04-18T12:14:34.445Z,102939.56
2023-04-18T12:16:43.693Z,102951.22
2023-04-18T12:18:55.265Z,102942.44
2023-04-18T12:21:02.305Z,102937.19
2023-04-18T12:23:26.130Z,102944.06
2023-04-18T12:25:41.085Z,102933.97
2023-04-18T12:27:59.932Z,102937.28
2023-04-18T12:30:26.245Z,102943.25
2023-04-18T12:32:55.247Z,102938.97
2023-04-18T12:35:06.765Z,102938.06
2023-04-18T12:37:32.678Z,102942.75
2023-04-18T12:39:45.153Z,102941.78
2023-04-18T12:42:01.068Z,102944.22
2023-04-18T12:44:13.003Z,102936.88
2023-04-18T12:46:32.594Z,102941.00
2023-04-18T12:49:00.708Z,102934.81
2023-04-18T12:51:23.962Z,102937.28
2023-04-18T12:53:44.954Z,102929.53
2023-04-18T12:56:02.710Z,102923.69
2023-04-18T12:58:26.748Z,102930.03
2023-04-18T13:00:36.860Z,102927.38
2023-04-18T13:02:55.465Z,102921.28
2023-04-18T13:05:12.796Z,102923.94
2023-04-18T13:07:30.542Z,102918.84
2023-04-18T13:09:44.441Z,102924.25
2023-04-18T13:12:00.695Z,102924.44
2023-04-18T13:16:49.678Z,102927.19
2023-04-18T13:19:02.847Z,102926.25
2023-04-18T13:21:22.136Z,102928.00
2023-04-18T13:23:30.729Z,102924.53
2023-04-18T13:25:44.828Z,102925.28
2023-04-18T13:28:02.098Z,102923.22
2023-04-18T13:30:25.115Z,102920.50
2023-04-18T13:32:43.231Z,102917.91
2023-04-18T13:35:11.038Z,102921.72
2023-04-18T13:37:24.926Z,102919.16
2023-04-18T13:40:00.466Z,102920.25
2023-04-18T13:42:29.119Z,102917.25
2023-04-18T13:44:50.154Z,102917.34
2023-04-18T13:46:57.255Z,102920.81
2023-04-18T13:49:15.104Z,102916.34
2023-04-18T13:51:35.563Z,102924.19
2023-04-18T13:53:58.141Z,102925.13
2023-04-18T13:56:19.232Z,102929.47
2023-04-18T13:58:44.053Z,102924.25
2023-04-18T14:00:53.731Z,102927.28
2023-04-18T14:03:06.058Z,102919.16
2023-04-18T14:05:14.476Z,102922.53
2023-04-18T14:07:34.537Z,102911.91
2023-04-18T14:10:12.813Z,102919.59
2023-04-18T14:15:35.692Z,102900.72
2023-04-18T14:17:51.160Z,102897.00
2023-04-18T14:20:25.964Z,102911.41
2023-04-18T14:23:00.514Z,102908.81
2023-04-18T14:25:10.264Z,102906.56
2023-04-18T14:27:29.007Z,102891.19
2023-04-18T14:29:37.446Z,102895.44
2023-04-18T14:31:54.225Z,102898.03
2023-04-18T14:34:08.786Z,102888.91
2023-04-18T14:36:23.292Z,102897.31
2023-04-18T14:38:35.728Z,102891.84
2023-04-18T14:40:58.262Z,102892.22
2023-04-18T14:43:09.158Z,102890.69
2023-04-18T14:45:19.047Z,102891.44
2023-04-18T14:47:31.562Z,102883.59
2023-04-18T14:49:41.742Z,102894.50
2023-04-18T14:51:50.250Z,102894.28
2023-04-18T14:54:06.360Z,102883.84
2023-04-18T14:56:22.642Z,102885.72
2023-04-18T14:58:32.995Z,102880.19
2023-04-18T15:00:39.656Z,102876.16
2023-04-18T15:03:06.702Z,102878.66
2023-04-18T15:05:26.492Z,102876.38
2023-04-18T15:07:36.638Z,102874.25
2023-04-18T15:09:49.225Z,102870.03
2023-04-18T15:11:58.392Z,102874.16
2023-04-18T15:14:12.893Z,102864.13
2023-04-18T15:16:24.358Z,102866.13
2023-04-18T15:18:58.822Z,102875.25
2023-04-18T15:21:08.977Z,102875.78
2023-04-18T15:23:21.964Z,102870.31
2023-04-18T15:25:35.767Z,102874.72
2023-04-18T15:27:50.802Z,102878.66
2023-04-18T15:29:57.073Z,102878.81
2023-04-18T15:32:21.695Z,102872.06
2023-04-18T15:34:36.526Z,102874.53
2023-04-18T15:37:03.437Z,102873.69
2023-04-18T15:39:20.717Z,102866.94
2023-04-18T15:41:30.818Z,102862.75
2023-04-18T15:43:35.794Z,102873.50
2023-04-18T15:45:44.758Z,102858.72
2023-04-18T15:47:50.061Z,102865.78
2023-04-18T15:49:55.014Z,102858.28
2023-04-18T15:51:59.847Z,102854.75
2023-04-18T15:54:06.179Z,102860.94
2023-04-18T15:56:11.200Z,102854.19
2023-04-18T15:58:20.882Z,102861.09
2023-04-18T16:00:26.739Z,102856.03
2023-04-18T16:02:32.890Z,102872.25
2023-04-18T16:04:39.883Z,102847.50
2023-04-18T16:06:44.990Z,102859.97
2023-04-18T16:08:53.352Z,102857.16
2023-04-18T16:10:58.142Z,102857.91
2023-04-18T16:13:04.350Z,102857.25
2023-04-18T16:15:16.341Z,102855.28
2023-04-18T16:17:26.506Z,102855.88
2023-04-18T16:19:33.907Z,102851.44
2023-04-18T16:21:44.645Z,102855.44
2023-04-18T16:24:29.820Z,102849.56
2023-04-18T16:29:44.848Z,102850.53
2023-04-18T16:31:58.454Z,102854.88
2023-04-18T16:34:07.792Z,102848.19
2023-04-18T16:36:23.401Z,102853.50
2023-04-18T16:41:56.486Z,102853.97
2023-04-18T16:44:25.504Z,102847.69
2023-04-18T16:46:55.692Z,102848.91
2023-04-18T17:00:23.779Z,102853.72
2023-04-18T17:02:45.366Z,102856.38
2023-04-18T17:05:43.488Z,102849.28
2023-04-18T17:10:48.886Z,102845.88
2023-04-18T17:13:00.206Z,102845.03
2023-04-18T17:15:11.457Z,102844.16
2023-04-18T17:17:40.932Z,102848.38
2023-04-18T17:20:11.223Z,102849.44
2023-04-18T17:25:32.477Z,102849.75
2023-04-18T17:28:24.094Z,102850.78
2023-04-18T17:30:54.116Z,102856.09
2023-04-18T17:33:21.442Z,102844.56
2023-04-18T17:35:56.274Z,102854.38
2023-04-18T17:38:13.160Z,102853.63
2023-04-18T17:40:52.239Z,102847.50
2023-04-18T17:43:55.087Z,102851.94
2023-04-18T17:49:27.414Z,102853.00
2023-04-18T18:00:43.226Z,102862.97
2023-04-18T18:06:12.693Z,102855.22
2023-04-18T18:08:50.141Z,102857.06
2023-04-18T18:11:43.864Z,102857.09
2023-04-18T18:20:18.615Z,102873.44
2023-04-18T18:25:43.198Z,102868.34
2023-04-18T18:28:09.864Z,102868.28
2023-04-18T18:30:38.752Z,102871.19
2023-04-18T18:33:07.114Z,102871.25
2023-04-18T18:35:36.927Z,102873.06
2023-04-18T18:37:42.567Z,102866.06
2023-04-18T18:40:22.625Z,102865.34
2023-04-18T18:45:49.845Z,102879.38
2023-04-18T18:48:23.747Z,102868.94
2023-04-18T18:53:18.623Z,102884.78
2023-04-18T18:55:37.714Z,102882.19
2023-04-18T18:58:10.745Z,102880.50
2023-04-18T19:00:41.095Z,102877.16
2023-04-18T19:03:08.293Z,102887.72
2023-04-18T19:05:53.388Z,102886.03
2023-04-18T19:08:26.844Z,102885.25
2023-04-18T19:11:32.164Z,102894.13
2023-04-18T19:13:37.193Z,102899.44
2023-04-18T19:15:42.211Z,102904.75
2023-04-18T19:17:49.908Z,102907.41
2023-04-18T19:19:58.092Z,102906.59
2023-04-18T19:22:03.191Z,102908.34
2023-04-18T19:24:12.013Z,102911.91
2023-04-18T19:26:18.711Z,102913.75
2023-04-18T19:28:40.419Z,102914.69
2023-04-18T19:31:00.538Z,102916.47
2023-04-18T19:33:42.161Z,102915.63
2023-04-18T19:41:46.163Z,102910.47
2023-04-18T19:44:32.266Z,102920.13
2023-04-18T19:47:07.669Z,102918.41
2023-04-18T19:49:58.487Z,102921.94
2023-04-18T19:52:28.317Z,102919.34
2023-04-18T19:55:13.037Z,102917.59
2023-04-18T19:58:23.706Z,102921.97
2023-04-18T20:01:02.000Z,102927.25
2023-04-18T20:06:21.155Z,102918.56
2023-04-18T20:12:09.442Z,102926.47
2023-04-18T20:17:20.849Z,102932.59
2023-04-18T20:20:11.139Z,102929.13
2023-04-18T20:22:55.688Z,102933.50
2023-04-18T20:28:22.398Z,102931.75
2023-04-18T20:30:29.217Z,102940.50
2023-04-18T20:32:43.486Z,102938.72
2023-04-18T20:34:50.206Z,102940.47
2023-04-18T20:37:45.248Z,102939.59
2023-04-18T20:40:46.977Z,102936.97
2023-04-18T20:43:33.989Z,102941.34
2023-04-18T20:58:41.989Z,102945.72
2023-04-18T21:01:30.226Z,102948.34
2023-04-18T21:03:38.440Z,102952.69
2023-04-18T21:05:46.122Z,102953.59
2023-04-18T21:07:54.551Z,102956.22
2023-04-18T21:10:03.173Z,102963.22
2023-04-18T21:12:11.979Z,102961.47
2023-04-18T21:14:24.887Z,102957.09
2023-04-18T21:16:39.993Z,102960.59
2023-04-18T21:18:45.647Z,102967.59
2023-04-18T21:20:53.302Z,102968.50
2023-04-18T21:23:02.112Z,102967.59
2023-04-18T21:25:07.862Z,102970.22
2023-04-18T21:27:13.491Z,102967.59
2023-04-18T21:29:24.732Z,102975.47
2023-04-18T21:31:31.891Z,102975.47
2023-04-18T21:33:38.658Z,102980.75
2023-04-18T21:35:44.118Z,102972.88
2023-04-18T21:37:55.928Z,102975.47
2023-04-18T21:40:00.820Z,102976.34
2023-04-18T21:42:05.631Z,102977.22
2023-04-18T21:44:12.065Z,102980.75
2023-04-18T21:46:20.164Z,102978.97
2023-04-18T21:48:25.270Z,102979.88
2023-04-18T21:50:30.274Z,102977.22
2023-04-18T21:52:36.796Z,102975.50
2023-04-18T21:54:42.237Z,102974.59
2023-04-18T21:56:47.214Z,102982.50
2023-04-18T21:58:53.046Z,102986.84
2023-04-18T22:00:58.066Z,102979.84
2023-04-18T22:03:06.645Z,102976.38
2023-04-18T22:05:13.095Z,102976.34
2023-04-18T22:07:19.353Z,102979.00
2023-04-18T22:09:24.809Z,102979.84
2023-04-18T22:11:30.100Z,102978.97
2023-04-18T22:13:35.951Z,102984.22
2023-04-18T22:15:42.771Z,102973.75
2023-04-18T22:17:50.338Z,102986.81
2023-04-18T22:19:58.431Z,102980.69
2023-04-18T22:22:03.268Z,102976.31
2023-04-18T22:24:19.886Z,102965.84
2023-04-18T22:26:28.526Z,102979.81
2023-04-18T22:28:34.276Z,102979.81
2023-04-18T22:30:42.282Z,102973.69
2023-04-18T22:32:51.244Z,102978.06
2023-04-18T22:34:59.923Z,102976.28
2023-04-18T22:37:06.144Z,102982.44
2023-04-18T22:39:12.324Z,102975.41
2023-04-18T22:41:19.929Z,102974.53
2023-04-18T22:43:25.838Z,102974.53
2023-04-18T22:45:30.806Z,102978.00
2023-04-18T22:47:36.779Z,102987.63
2023-04-18T22:49:42.407Z,102977.06
2023-04-18T22:51:50.052Z,102976.22
2023-04-18T22:53:55.300Z,102976.22
2023-04-18T22:56:00.483Z,102977.06
2023-04-18T22:58:07.566Z,102979.69
2023-04-18T23:00:14.210Z,102984.03
2023-04-18T23:02:19.838Z,102975.31
2023-04-18T23:04:24.831Z,102980.53
2023-04-18T23:06:30.409Z,102982.28
2023-04-18T23:08:38.339Z,102971.81
2023-04-18T23:10:43.476Z,102974.44
2023-04-18T23:12:48.505Z,102982.28
2023-04-18T23:14:53.661Z,102984.88
2023-04-18T23:16:58.856Z,102984.88
2023-04-18T23:19:04.323Z,102985.75
2023-04-18T23:21:10.898Z,102991.84
2023-04-18T23:23:15.851Z,102986.59
2023-04-18T23:25:23.525Z,102989.19
2023-04-18T23:27:31.421Z,102985.72
2023-04-18T23:29:41.850Z,102994.41
2023-04-18T23:31:48.280Z,102989.13
2023-04-18T23:33:53.352Z,102994.38
2023-04-18T23:35:58.447Z,102979.50
2023-04-18T23:38:03.719Z,102988.22
2023-04-18T23:40:11.333Z,102990.81
2023-04-18T23:42:20.662Z,102984.69
2023-04-18T23:44:27.647Z,102981.19
2023-04-18T23:46:34.389Z,102989.88
2023-04-18T23:48:42.208Z,102990.78
2023-04-18T23:50:49.537Z,102991.59
2023-04-18T23:52:54.748Z,102984.59
2023-04-18T23:55:02.739Z,102981.97
2023-04-18T23:57:09.208Z,102987.19
2023-04-18T23:59:19.815Z,102984.56
